Centreville, Virginia
Current Conditions -  °F | °C
As of 7:52 AM on Sunday 23 Nov 2014 (Local Time) from KIAD Reporting Station
Broken Clouds Broken Clouds  
Wind Chill: 36°   Ceiling: 25000
Heat Index: 36°   Visibility: 10mi
Dew Point: 20°   Wind: 0mph
Humidity: 52%   Direction: NA
Pressure: 30.22"   Gusts: NA
Location:  38.84°N, 77.44°W
Report Text: KIAD 231252Z 00000KT 10SM FEW075 SCT100 BKN250 02/M07 A3022 RMK AO2 SLP235 T00221067
Loading
Personal Weather Stations






























Interactive Weather Map New forecast layout! Learn more

10-Day Weather Forecast

Advertisements
Track Severe Weather on mobile